createdAt,value
2019-05-16T00:00:25.292Z,75.3429
2019-05-16T00:01:29.950Z,75.6008
2019-05-16T00:02:33.305Z,75.6497
2019-05-16T00:03:38.288Z,75.9014
2019-05-16T00:04:41.280Z,75.9625
2019-05-16T00:05:53.368Z,76.0998
2019-05-16T00:06:52.300Z,76.0998
2019-05-16T00:07:55.304Z,76.1440
2019-05-16T00:08:58.572Z,75.9930
2019-05-16T00:10:01.308Z,75.9289
2019-05-16T00:11:04.270Z,75.9854
2019-05-16T00:12:08.802Z,75.9289
2019-05-16T00:13:12.273Z,75.8618
2019-05-16T00:14:15.313Z,75.9289
2019-05-16T00:15:18.405Z,76.1410
2019-05-16T00:16:22.317Z,76.0021
2019-05-16T00:17:25.267Z,76.1852
2019-05-16T00:18:28.517Z,76.2188
2019-05-16T00:19:30.360Z,76.2692
2019-05-16T00:20:33.290Z,76.3104
2019-05-16T00:21:38.215Z,76.4431
2019-05-16T00:22:43.321Z,76.4920
2019-05-16T00:23:48.300Z,76.5194
2019-05-16T00:24:51.332Z,76.7117
2019-05-16T00:25:54.275Z,77.0062
2019-05-16T00:26:58.001Z,77.1389
2019-05-16T00:28:01.303Z,77.3266
2019-05-16T00:29:04.295Z,77.4670
2019-05-16T00:30:08.617Z,77.6135
2019-05-16T00:31:12.315Z,77.7157
2019-05-16T00:32:15.281Z,77.9080
2019-05-16T00:33:18.467Z,77.9721
2019-05-16T00:34:21.291Z,78.1949
2019-05-16T00:35:24.338Z,78.3230
2019-05-16T00:36:27.803Z,78.5122
2019-05-16T00:37:31.267Z,78.7320
2019-05-16T00:38:34.311Z,78.8083
2019-05-16T00:39:38.796Z,78.7686
2019-05-16T00:40:42.372Z,78.9044
2019-05-16T00:41:45.264Z,79.0143
2019-05-16T00:42:49.105Z,79.1012
2019-05-16T00:43:52.285Z,79.1348
2019-05-16T00:44:55.331Z,79.1119
2019-05-16T00:45:58.947Z,79.2767
2019-05-16T00:47:02.332Z,79.2721
2019-05-16T00:48:05.282Z,79.2584
2019-05-16T00:49:08.483Z,79.2660
2019-05-16T00:50:11.366Z,79.2752
2019-05-16T00:51:14.285Z,79.3133
2019-05-16T00:52:18.367Z,79.2950
2019-05-16T00:53:21.311Z,79.3683
2019-05-16T00:54:24.336Z,79.1562
2019-05-16T00:55:28.366Z,79.0890
2019-05-16T00:56:31.277Z,79.2340
2019-05-16T00:57:33.340Z,79.2798
2019-05-16T00:58:37.804Z,79.1791
2019-05-16T00:59:41.326Z,79.1791
2019-05-16T01:00:44.282Z,79.1699
2019-05-16T01:01:50.060Z,79.1699
2019-05-16T01:02:53.299Z,79.3500
2019-05-16T01:03:58.468Z,79.0600
2019-05-16T01:05:01.328Z,79.0509
2019-05-16T01:06:15.834Z,79.1074
2019-05-16T01:07:12.281Z,78.7030
2019-05-16T01:08:15.305Z,78.8418
2019-05-16T01:09:18.848Z,78.8769
2019-05-16T01:10:22.295Z,79.0387
2019-05-16T01:11:27.634Z,79.0066
2019-05-16T01:12:29.309Z,78.8174
2019-05-16T01:13:32.301Z,78.5885
2019-05-16T01:14:35.311Z,78.5946
2019-05-16T01:15:38.319Z,78.7533
2019-05-16T01:16:41.291Z,78.5611
2019-05-16T01:17:44.324Z,78.4192
2019-05-16T01:18:48.617Z,78.5260
2019-05-16T01:19:52.341Z,78.4894
2019-05-16T01:20:55.303Z,78.3871
2019-05-16T01:21:59.014Z,78.5428
2019-05-16T01:23:02.306Z,78.5534
2019-05-16T01:24:05.318Z,78.4741
2019-05-16T01:25:09.412Z,78.4665
2019-05-16T01:26:12.313Z,78.3276
2019-05-16T01:27:15.291Z,78.3932
2019-05-16T01:28:19.294Z,78.4237
2019-05-16T01:29:22.299Z,78.3886
2019-05-16T01:30:25.344Z,78.6313
2019-05-16T01:31:28.303Z,78.7030
2019-05-16T01:32:32.213Z,78.5748
2019-05-16T01:33:35.291Z,78.4527
2019-05-16T01:34:38.352Z,78.6847
2019-05-16T01:35:41.836Z,78.5107
2019-05-16T01:36:45.342Z,78.7320
2019-05-16T01:37:48.748Z,78.7961
2019-05-16T01:38:52.349Z,78.5382
2019-05-16T01:39:55.295Z,78.2681
2019-05-16T01:40:58.483Z,78.4390
2019-05-16T01:42:01.310Z,78.7121
2019-05-16T01:43:03.283Z,78.6130
2019-05-16T01:44:07.870Z,78.3963
2019-05-16T01:45:11.327Z,78.5473
2019-05-16T01:46:18.048Z,78.4741
2019-05-16T01:47:23.305Z,78.5885
2019-05-16T01:48:29.150Z,78.5931
2019-05-16T01:49:34.291Z,78.6404
2019-05-16T01:50:38.818Z,78.4298
2019-05-16T01:51:42.277Z,78.5306
2019-05-16T01:52:45.302Z,78.4710
2019-05-16T01:53:48.845Z,78.2971
2019-05-16T01:54:51.266Z,78.4054
2019-05-16T01:55:54.352Z,78.2238
2019-05-16T01:56:59.377Z,78.3886
2019-05-16T01:58:03.352Z,78.4070
2019-05-16T01:59:08.869Z,78.3734
2019-05-16T02:00:11.295Z,78.4329
2019-05-16T02:01:15.911Z,78.4878
2019-05-16T02:02:19.305Z,78.2650
2019-05-16T02:03:22.312Z,78.0804
2019-05-16T02:04:25.274Z,77.9812
2019-05-16T02:05:28.306Z,78.1079
2019-05-16T02:06:31.298Z,78.1720
2019-05-16T02:07:34.322Z,78.1323
2019-05-16T02:08:38.032Z,78.0484
2019-05-16T02:09:41.308Z,77.9934
2019-05-16T02:10:44.276Z,78.0026
2019-05-16T02:11:48.107Z,78.2147
2019-05-16T02:12:51.289Z,78.2101
2019-05-16T02:13:54.293Z,78.1186
2019-05-16T02:14:58.728Z,78.2727
2019-05-16T02:16:02.297Z,78.2788
2019-05-16T02:17:05.332Z,78.2910
2019-05-16T02:18:08.479Z,78.3383
2019-05-16T02:19:11.325Z,78.5977
2019-05-16T02:20:14.305Z,78.4695
2019-05-16T02:21:18.189Z,78.4756
2019-05-16T02:22:21.296Z,78.7076
2019-05-16T02:23:24.285Z,79.0097
2019-05-16T02:24:28.494Z,79.0387
2019-05-16T02:25:30.280Z,78.9975
2019-05-16T02:26:33.328Z,78.9364
2019-05-16T02:27:40.598Z,78.9914
2019-05-16T02:28:44.341Z,79.1760
2019-05-16T02:29:47.270Z,79.2126
2019-05-16T02:30:51.368Z,79.2218
2019-05-16T02:31:55.289Z,79.2935
2019-05-16T02:33:01.088Z,79.1989
2019-05-16T02:34:04.806Z,79.4095
2019-05-16T02:35:11.264Z,79.5727
2019-05-16T02:36:15.331Z,79.5697
2019-05-16T02:37:25.811Z,79.3500
2019-05-16T02:38:26.315Z,79.3484
2019-05-16T02:39:30.589Z,79.4415
2019-05-16T02:40:33.306Z,79.3545
2019-05-16T02:41:36.257Z,79.5041
2019-05-16T02:42:41.951Z,79.5819
2019-05-16T02:43:45.279Z,79.8306
2019-05-16T02:44:51.105Z,79.8856
2019-05-16T02:45:54.252Z,79.8382
2019-05-16T02:46:57.248Z,79.7971
2019-05-16T02:48:01.346Z,79.9069
2019-05-16T02:49:04.294Z,79.9573
2019-05-16T02:50:06.311Z,79.9481
2019-05-16T02:51:11.079Z,80.0305
2019-05-16T02:52:14.319Z,79.9390
2019-05-16T02:53:17.307Z,80.0488
2019-05-16T02:54:21.813Z,80.1694
2019-05-16T02:55:25.303Z,80.1053
2019-05-16T02:56:27.319Z,80.1099
2019-05-16T02:57:31.660Z,79.9619
2019-05-16T02:58:35.303Z,80.0275
2019-05-16T02:59:41.275Z,80.1144
2019-05-16T03:00:44.286Z,80.2090
2019-05-16T03:01:47.315Z,80.4074
2019-05-16T03:02:50.523Z,80.5386
2019-05-16T03:03:53.323Z,80.7004
2019-05-16T03:04:56.284Z,80.8148
2019-05-16T03:06:01.392Z,80.4257
2019-05-16T03:07:04.315Z,80.6271
2019-05-16T03:08:07.284Z,80.4654
2019-05-16T03:09:11.243Z,80.5585
2019-05-16T03:10:14.299Z,80.5127
2019-05-16T03:11:20.711Z,80.7904
2019-05-16T03:12:23.272Z,80.7462
2019-05-16T03:13:26.337Z,80.5936
2019-05-16T03:14:31.619Z,80.6851
2019-05-16T03:15:34.298Z,80.7370
2019-05-16T03:16:37.284Z,80.6546
2019-05-16T03:17:40.446Z,80.7370
2019-05-16T03:18:43.331Z,80.6943
2019-05-16T03:19:46.284Z,80.4883
2019-05-16T03:20:51.007Z,80.4440
2019-05-16T03:21:54.277Z,80.3067
2019-05-16T03:22:57.324Z,80.3235
2019-05-16T03:24:00.854Z,80.2563
2019-05-16T03:25:04.298Z,80.1266
2019-05-16T03:26:07.285Z,80.0092
2019-05-16T03:27:10.825Z,80.2640
2019-05-16T03:28:14.305Z,80.0854
2019-05-16T03:29:17.314Z,79.9542
2019-05-16T03:30:23.728Z,79.9619
2019-05-16T03:31:26.282Z,79.9893
2019-05-16T03:32:34.060Z,80.0076
2019-05-16T03:33:48.442Z,80.2151
2019-05-16T03:34:45.328Z,80.0000
2019-05-16T03:35:53.657Z,80.0412
2019-05-16T03:36:56.336Z,80.1236
2019-05-16T03:38:01.451Z,80.1221
2019-05-16T03:39:10.488Z,79.9573
2019-05-16T03:40:13.274Z,79.7559
2019-05-16T03:41:16.319Z,79.6521
2019-05-16T03:42:20.461Z,79.7971
2019-05-16T03:43:23.277Z,79.8489
2019-05-16T03:44:26.352Z,79.8566
2019-05-16T03:45:31.791Z,79.9863
2019-05-16T03:46:36.377Z,79.8260
2019-05-16T03:47:42.619Z,79.7208
2019-05-16T03:48:46.346Z,79.9405
2019-05-16T03:49:51.728Z,79.9176
2019-05-16T03:50:55.284Z,79.7971
2019-05-16T03:52:01.342Z,79.8764
2019-05-16T03:53:04.306Z,79.9252
2019-05-16T03:54:07.352Z,79.9039
2019-05-16T03:55:10.999Z,79.9954
2019-05-16T03:56:14.295Z,79.9863
2019-05-16T03:57:20.907Z,79.9573
2019-05-16T03:58:24.310Z,80.1083
2019-05-16T03:59:27.326Z,80.2563
2019-05-16T04:00:31.586Z,80.0412
2019-05-16T04:01:33.296Z,80.2426
2019-05-16T04:02:35.489Z,80.1236
2019-05-16T04:03:41.229Z,80.2518
2019-05-16T04:04:44.301Z,80.2640
2019-05-16T04:05:47.282Z,80.2976
2019-05-16T04:06:50.764Z,80.3510
2019-05-16T04:08:10.161Z,80.4654
2019-05-16T04:09:01.717Z,80.5402
2019-05-16T04:10:06.352Z,80.3601
2019-05-16T04:11:11.734Z,80.4242
2019-05-16T04:12:14.262Z,80.3922
2019-05-16T04:13:17.302Z,80.5997
2019-05-16T04:14:21.365Z,80.5432
2019-05-16T04:15:24.265Z,80.6668
2019-05-16T04:16:31.318Z,80.5539
2019-05-16T04:17:34.293Z,80.6165
2019-05-16T04:18:37.277Z,80.4898
2019-05-16T04:19:41.531Z,80.9461
2019-05-16T04:20:44.300Z,80.7675
2019-05-16T04:21:50.824Z,80.8087
2019-05-16T04:22:54.300Z,80.7950
2019-05-16T04:23:57.321Z,80.9522
2019-05-16T04:25:01.896Z,80.9979
2019-05-16T04:26:05.287Z,80.9293
2019-05-16T04:27:07.291Z,81.1383
2019-05-16T04:28:11.578Z,80.9735
2019-05-16T04:29:14.333Z,80.9735
2019-05-16T04:30:17.362Z,81.1841
2019-05-16T04:31:22.087Z,81.0941
2019-05-16T04:32:25.351Z,81.2131
2019-05-16T04:33:30.987Z,81.2955
2019-05-16T04:34:34.351Z,81.4221
2019-05-16T04:35:37.288Z,81.4038
2019-05-16T04:36:40.829Z,81.6236
2019-05-16T04:37:44.321Z,81.7487
2019-05-16T04:38:47.331Z,81.7487
2019-05-16T04:39:50.764Z,81.5930
2019-05-16T04:40:54.294Z,81.4786
2019-05-16T04:41:57.306Z,81.4191
2019-05-16T04:43:01.365Z,81.5564
2019-05-16T04:44:04.907Z,81.1566
2019-05-16T04:45:11.515Z,80.9827
2019-05-16T04:46:14.317Z,81.1017
2019-05-16T04:47:17.326Z,81.2940
2019-05-16T04:48:22.290Z,81.2680
2019-05-16T04:49:25.352Z,81.3001
2019-05-16T04:50:30.968Z,81.2177
2019-05-16T04:51:34.297Z,81.2451
2019-05-16T04:52:37.291Z,81.1887
2019-05-16T04:53:42.464Z,81.1719
2019-05-16T04:54:46.350Z,81.1307
2019-05-16T04:55:51.566Z,81.1627
2019-05-16T04:56:54.327Z,81.2894
2019-05-16T04:57:57.310Z,80.9232
2019-05-16T04:59:00.550Z,80.7187
2019-05-16T05:00:04.303Z,80.4532
2019-05-16T05:01:07.329Z,80.3098
2019-05-16T05:02:12.220Z,80.1587
2019-05-16T05:03:16.298Z,80.1328
2019-05-16T05:04:21.094Z,80.1083
2019-05-16T05:05:24.339Z,80.3250
2019-05-16T05:06:27.313Z,80.0366
2019-05-16T05:07:31.242Z,80.1038
2019-05-16T05:08:49.121Z,80.1816
2019-05-16T05:09:42.326Z,80.1236
2019-05-16T05:10:45.327Z,79.9039
2019-05-16T05:11:48.289Z,79.7055
2019-05-16T05:12:51.461Z,79.8993
2019-05-16T05:13:55.290Z,79.6567
2019-05-16T05:15:00.998Z,80.0412
2019-05-16T05:16:04.306Z,79.9207
2019-05-16T05:17:07.289Z,79.9451
2019-05-16T05:18:10.347Z,79.8489
2019-05-16T05:19:13.314Z,79.7559
2019-05-16T05:20:16.331Z,79.9680
2019-05-16T05:21:20.953Z,79.9939
2019-05-16T05:22:24.302Z,80.0580
2019-05-16T05:23:29.961Z,79.9802
2019-05-16T05:24:33.313Z,79.9802
2019-05-16T05:25:36.314Z,79.9298
2019-05-16T05:26:41.460Z,79.8489
2019-05-16T05:27:45.310Z,79.7284
2019-05-16T05:28:50.573Z,79.7620
2019-05-16T05:29:54.305Z,79.7284
2019-05-16T05:30:59.549Z,79.6139
2019-05-16T05:32:04.702Z,79.4492
2019-05-16T05:33:10.117Z,79.4278
2019-05-16T05:34:13.332Z,79.3179
2019-05-16T05:35:15.313Z,79.2432
2019-05-16T05:36:20.815Z,79.3713
2019-05-16T05:37:24.290Z,79.4995
2019-05-16T05:38:27.273Z,79.5178
2019-05-16T05:39:30.451Z,79.4507
2019-05-16T05:40:33.321Z,79.3591
2019-05-16T05:41:36.365Z,78.8876
2019-05-16T05:42:39.869Z,78.5855
2019-05-16T05:43:42.340Z,78.5901
2019-05-16T05:44:45.296Z,78.4436
2019-05-16T05:45:50.901Z,78.1811
2019-05-16T05:46:54.283Z,77.9355
2019-05-16T05:48:00.003Z,77.6135
2019-05-16T05:49:03.294Z,77.5723
2019-05-16T05:50:06.304Z,77.5128
2019-05-16T05:51:11.265Z,77.4716
2019-05-16T05:52:15.307Z,77.3724
2019-05-16T05:53:20.633Z,77.2717
2019-05-16T05:54:24.282Z,77.4960
2019-05-16T05:55:27.322Z,77.4273
2019-05-16T05:56:30.612Z,77.3480
2019-05-16T05:57:33.357Z,76.7025
2019-05-16T05:58:36.304Z,76.4614
2019-05-16T05:59:40.462Z,76.6567
2019-05-16T06:00:43.305Z,77.0138
2019-05-16T06:01:46.307Z,77.0932
2019-05-16T06:02:50.846Z,77.1923
2019-05-16T06:03:54.295Z,77.3022
2019-05-16T06:04:59.564Z,77.4411
2019-05-16T06:06:03.300Z,77.1160
2019-05-16T06:07:06.340Z,76.7758
2019-05-16T06:08:10.679Z,76.3607
2019-05-16T06:09:25.271Z,76.2448
2019-05-16T06:10:22.317Z,76.2631
2019-05-16T06:11:25.333Z,76.0082
2019-05-16T06:12:30.363Z,76.0266
2019-05-16T06:13:33.289Z,76.1715
2019-05-16T06:14:36.328Z,76.2280
2019-05-16T06:15:39.967Z,76.3653
2019-05-16T06:16:43.302Z,76.2585
2019-05-16T06:17:46.299Z,76.3912
2019-05-16T06:18:50.291Z,76.2539
2019-05-16T06:19:53.302Z,76.3104
2019-05-16T06:20:56.289Z,75.8877
2019-05-16T06:22:01.002Z,75.5413
2019-05-16T06:23:04.307Z,75.5123
2019-05-16T06:24:07.355Z,75.3841
2019-05-16T06:25:13.145Z,75.3491
2019-05-16T06:26:20.148Z,74.8898
2019-05-16T06:27:23.301Z,74.9584
2019-05-16T06:28:26.349Z,74.1054
2019-05-16T06:29:30.965Z,74.0780
2019-05-16T06:30:34.319Z,74.7097
2019-05-16T06:31:37.307Z,74.7280
2019-05-16T06:32:40.342Z,74.5922
2019-05-16T06:33:43.355Z,74.5815
2019-05-16T06:34:46.297Z,74.3175
2019-05-16T06:35:51.330Z,74.3526
2019-05-16T06:36:54.287Z,73.3959
2019-05-16T06:37:57.297Z,74.0291
2019-05-16T06:39:00.318Z,74.0841
2019-05-16T06:40:03.329Z,74.2153
2019-05-16T06:41:06.309Z,74.0826
2019-05-16T06:42:09.835Z,74.2626
2019-05-16T06:43:13.328Z,74.1695
2019-05-16T06:44:16.308Z,74.2946
2019-05-16T06:45:20.485Z,74.5235
2019-05-16T06:46:24.325Z,73.3135
2019-05-16T06:47:27.334Z,73.5988
2019-05-16T06:48:30.603Z,73.7530
2019-05-16T06:49:34.343Z,73.4829
2019-05-16T06:50:37.298Z,73.1716
2019-05-16T06:51:40.344Z,73.2586
2019-05-16T06:52:45.773Z,73.3684
2019-05-16T06:53:50.073Z,73.5241
2019-05-16T06:54:53.917Z,73.7179
2019-05-16T06:55:56.301Z,74.1299
2019-05-16T06:57:00.136Z,74.5052
2019-05-16T06:58:03.334Z,74.5083
2019-05-16T06:59:06.335Z,74.0063
2019-05-16T07:00:10.980Z,73.9376
2019-05-16T07:01:14.337Z,73.6217
2019-05-16T07:02:27.791Z,73.5714
2019-05-16T07:03:25.359Z,73.9544
2019-05-16T07:04:30.329Z,72.6421
2019-05-16T07:05:32.345Z,72.4666
2019-05-16T07:06:51.668Z,72.7520
2019-05-16T07:07:43.326Z,72.9992
2019-05-16T07:08:46.292Z,72.9061
2019-05-16T07:09:59.918Z,72.7092
2019-05-16T07:10:57.353Z,72.7596
2019-05-16T07:12:00.311Z,72.8893
2019-05-16T07:13:03.355Z,72.8756
2019-05-16T07:14:06.297Z,73.0770
2019-05-16T07:15:12.464Z,72.2759
2019-05-16T07:16:15.310Z,72.5811
2019-05-16T07:17:20.198Z,72.3583
2019-05-16T07:18:22.349Z,72.3659
2019-05-16T07:19:25.335Z,71.8547
2019-05-16T07:20:30.205Z,72.4315
2019-05-16T07:21:33.273Z,72.8252
2019-05-16T07:22:36.340Z,72.9931
2019-05-16T07:23:40.466Z,71.8364
2019-05-16T07:24:42.327Z,72.2606
2019-05-16T07:25:45.328Z,71.9036
2019-05-16T07:26:50.023Z,71.9417
2019-05-16T07:27:53.341Z,72.0089
2019-05-16T07:28:56.297Z,71.8364
2019-05-16T07:30:01.069Z,72.3705
2019-05-16T07:31:14.840Z,71.8074
2019-05-16T07:32:12.681Z,71.7174
2019-05-16T07:33:16.314Z,71.5785
2019-05-16T07:34:20.643Z,71.0491
2019-05-16T07:35:24.313Z,71.5846
2019-05-16T07:36:27.341Z,71.1727
2019-05-16T07:37:31.610Z,70.9255
2019-05-16T07:38:35.311Z,70.4952
2019-05-16T07:39:39.295Z,71.1086
2019-05-16T07:40:45.301Z,71.0628
2019-05-16T07:41:50.663Z,71.4977
2019-05-16T07:42:54.323Z,70.0954
2019-05-16T07:43:57.327Z,69.3080
2019-05-16T07:45:00.687Z,69.5827
2019-05-16T07:46:04.337Z,69.4789
2019-05-16T07:47:07.310Z,69.9443
2019-05-16T07:48:10.758Z,69.8802
2019-05-16T07:49:14.306Z,69.6605
2019-05-16T07:50:16.335Z,69.5048
2019-05-16T07:51:20.519Z,69.3263
2019-05-16T07:52:23.363Z,69.3141
2019-05-16T07:53:26.336Z,68.8518
2019-05-16T07:54:34.087Z,69.4591
2019-05-16T07:55:37.315Z,68.8609
2019-05-16T07:56:40.890Z,68.7007
2019-05-16T07:57:44.353Z,68.5802
2019-05-16T07:58:47.311Z,68.7999
2019-05-16T07:59:50.667Z,68.9067
2019-05-16T08:01:02.752Z,68.5405
2019-05-16T08:02:02.332Z,68.2338
2019-05-16T08:03:05.325Z,67.7760
2019-05-16T08:04:10.438Z,68.1178
2019-05-16T08:05:14.352Z,68.6626
2019-05-16T08:06:17.313Z,68.4123
2019-05-16T08:07:20.360Z,68.6992
2019-05-16T08:08:24.545Z,68.9799
2019-05-16T08:09:27.317Z,69.3858
2019-05-16T08:10:37.935Z,69.5918
2019-05-16T08:11:40.656Z,69.4331
2019-05-16T08:12:44.394Z,70.2022
2019-05-16T08:13:47.340Z,70.6218
2019-05-16T08:14:50.378Z,69.4453
2019-05-16T08:15:53.302Z,69.2729
2019-05-16T08:16:56.312Z,67.4449
2019-05-16T08:18:03.242Z,66.3890
2019-05-16T08:19:06.347Z,66.7094
2019-05-16T08:20:10.893Z,66.7399
2019-05-16T08:21:16.893Z,67.1992
2019-05-16T08:22:22.529Z,67.7562
2019-05-16T08:23:26.334Z,68.0171
2019-05-16T08:24:30.580Z,67.8492
2019-05-16T08:25:36.304Z,68.2979
2019-05-16T08:27:47.362Z,68.1956
2019-05-16T08:28:50.668Z,68.2689
2019-05-16T08:29:54.304Z,68.4840
2019-05-16T08:31:00.594Z,68.1697
2019-05-16T08:32:04.311Z,67.5822
2019-05-16T08:33:07.314Z,67.0878
2019-05-16T08:34:12.185Z,66.9978
2019-05-16T08:35:15.322Z,66.6163
2019-05-16T08:36:20.640Z,66.5156
2019-05-16T08:38:32.318Z,66.6255
2019-05-16T08:39:35.311Z,66.6804
2019-05-16T08:41:01.221Z,67.0390
2019-05-16T08:41:46.289Z,66.7765
2019-05-16T08:42:51.658Z,66.5980
2019-05-16T08:43:54.330Z,66.8742
2019-05-16T08:44:57.308Z,66.3706
2019-05-16T08:46:01.038Z,66.5888
2019-05-16T08:47:06.272Z,66.2333
2019-05-16T08:48:11.502Z,66.1814
2019-05-16T08:49:14.374Z,66.5385
2019-05-16T08:50:08.650Z,66.2882
2019-05-16T08:50:17.299Z,66.0868
2019-05-16T08:51:22.182Z,65.9159
2019-05-16T08:52:25.266Z,65.8839
2019-05-16T08:53:31.401Z,65.7984
2019-05-16T08:54:36.396Z,66.1143
2019-05-16T08:55:43.328Z,65.7465
2019-05-16T08:56:46.333Z,65.8839
2019-05-16T08:57:53.017Z,65.8793
2019-05-16T08:58:56.345Z,65.1835
2019-05-16T09:00:01.376Z,64.9012
2019-05-16T09:01:05.303Z,64.4343
2019-05-16T09:02:12.001Z,62.7985
2019-05-16T09:03:15.320Z,63.2624
2019-05-16T09:04:23.862Z,63.4546
2019-05-16T09:05:26.440Z,63.5721
2019-05-16T09:06:31.993Z,63.7797
2019-05-16T09:07:35.365Z,63.6835
2019-05-16T09:08:38.339Z,62.7619
2019-05-16T09:09:48.696Z,62.4475
2019-05-16T09:10:10.717Z,68.3116
2019-05-16T09:11:00.766Z,62.4292
2019-05-16T09:11:57.575Z,62.0752
2019-05-16T09:13:00.383Z,62.6581
2019-05-16T09:14:03.313Z,63.0198
2019-05-16T09:15:07.644Z,63.5584
2019-05-16T09:16:11.331Z,63.9765
2019-05-16T09:17:14.339Z,62.9679
2019-05-16T09:18:17.869Z,63.1388
2019-05-16T09:19:21.344Z,63.0457
2019-05-16T09:20:24.299Z,62.5940
2019-05-16T09:21:27.640Z,62.1210
2019-05-16T09:22:31.305Z,62.4002
2019-05-16T09:23:34.305Z,62.4750
2019-05-16T09:24:37.824Z,62.7634
2019-05-16T09:25:41.264Z,62.0127
2019-05-16T09:26:47.161Z,62.5284
2019-05-16T09:27:50.312Z,62.6078
2019-05-16T09:28:53.299Z,62.6657
2019-05-16T09:29:56.900Z,62.7802
2019-05-16T09:31:00.300Z,62.5116
2019-05-16T09:32:15.918Z,61.5351
2019-05-16T09:33:11.266Z,62.1485
2019-05-16T09:34:17.302Z,63.3494
2019-05-16T09:35:21.332Z,63.9933
2019-05-16T09:36:24.389Z,63.1205
2019-05-16T09:37:27.299Z,63.3219
2019-05-16T09:38:30.302Z,63.2837
2019-05-16T09:39:33.319Z,63.6042
2019-05-16T09:40:38.877Z,63.9536
2019-05-16T09:41:50.609Z,63.8102
2019-05-16T09:42:50.310Z,63.9796
2019-05-16T09:43:53.346Z,63.7430
2019-05-16T09:44:57.740Z,63.2395
2019-05-16T09:46:07.590Z,63.4577
2019-05-16T09:47:09.311Z,63.5218
2019-05-16T09:48:12.339Z,63.2654
2019-05-16T09:49:20.392Z,63.8392
2019-05-16T09:50:23.321Z,63.4684
2019-05-16T09:51:27.154Z,63.5279
2019-05-16T09:52:30.341Z,63.1418
2019-05-16T09:53:33.305Z,63.3021
2019-05-16T09:54:37.902Z,62.8260
2019-05-16T09:55:41.289Z,63.2532
2019-05-16T09:56:46.369Z,63.6103
2019-05-16T09:57:50.346Z,63.9109
2019-05-16T09:58:52.313Z,63.4592
2019-05-16T09:59:57.203Z,64.2634
2019-05-16T10:01:00.314Z,64.3977
2019-05-16T10:02:02.361Z,64.1947
2019-05-16T10:03:07.096Z,64.5853
2019-05-16T10:04:10.287Z,64.2557
2019-05-16T10:05:13.873Z,64.4892
2019-05-16T10:06:19.135Z,64.3732
2019-05-16T10:07:22.370Z,64.1215
2019-05-16T10:08:26.554Z,64.6586
2019-05-16T10:09:40.735Z,64.7944
2019-05-16T10:10:38.330Z,64.9058
2019-05-16T10:11:42.550Z,63.6820
2019-05-16T10:12:46.287Z,63.2395
2019-05-16T10:13:49.371Z,63.5050
2019-05-16T10:14:52.310Z,63.5004
2019-05-16T10:15:55.336Z,63.3616
2019-05-16T10:16:58.328Z,63.4165
2019-05-16T10:18:01.320Z,63.4211
2019-05-16T10:19:04.291Z,63.3860
2019-05-16T10:20:07.886Z,63.2715
2019-05-16T10:21:11.351Z,63.5554
2019-05-16T10:22:16.888Z,63.4134
2019-05-16T10:23:20.335Z,63.4256
2019-05-16T10:27:39.680Z,63.0137
2019-05-16T10:28:42.304Z,62.5940
2019-05-16T10:29:48.094Z,61.8570
2019-05-16T10:30:52.366Z,62.0661
2019-05-16T10:31:56.860Z,61.6312
2019-05-16T10:33:00.978Z,61.5534
2019-05-16T10:34:03.350Z,61.6556
2019-05-16T10:35:06.332Z,61.5854
2019-05-16T10:36:09.333Z,61.8830
2019-05-16T10:37:12.311Z,60.8591
2019-05-16T10:38:15.305Z,60.5295
2019-05-16T10:39:18.303Z,60.3098
2019-05-16T10:40:21.341Z,59.4446
2019-05-16T10:41:24.318Z,59.0967
2019-05-16T10:42:28.906Z,58.9029
2019-05-16T10:43:32.296Z,59.1546
2019-05-16T10:44:38.542Z,59.5575
2019-05-16T10:45:42.303Z,59.4675
2019-05-16T10:46:47.645Z,60.3510
2019-05-16T10:47:50.290Z,60.4868
2019-05-16T10:48:52.627Z,60.0946
2019-05-16T10:49:56.487Z,59.2065
2019-05-16T10:51:00.296Z,60.7523
2019-05-16T10:52:03.341Z,60.8667
2019-05-16T10:53:23.699Z,60.2823
2019-05-16T10:54:17.715Z,60.5386
2019-05-16T10:55:21.329Z,60.5097
2019-05-16T10:56:24.356Z,59.4080
2019-05-16T10:57:29.804Z,58.7015
2019-05-16T10:58:41.401Z,57.8881
2019-05-16T11:00:06.832Z,58.9303
2019-05-16T11:01:11.159Z,59.1089
2019-05-16T11:01:59.686Z,58.4009
2019-05-16T11:03:03.317Z,58.2300
2019-05-16T11:04:07.474Z,58.0102
2019-05-16T11:05:25.133Z,58.2574
2019-05-16T11:06:25.580Z,58.7533
2019-05-16T11:07:29.878Z,58.8617
2019-05-16T11:08:33.344Z,58.7701
2019-05-16T11:09:39.175Z,58.9944
2019-05-16T11:10:42.463Z,58.2528
2019-05-16T11:11:47.621Z,57.9782
2019-05-16T11:12:55.209Z,58.6801
2019-05-16T11:13:58.332Z,58.4741
2019-05-16T11:15:01.351Z,58.2940
2019-05-16T11:16:06.941Z,57.6623
2019-05-16T11:17:13.864Z,57.7279
2019-05-16T11:18:17.640Z,56.8994
2019-05-16T11:19:24.445Z,57.4014
2019-05-16T11:20:28.369Z,56.6827
2019-05-16T11:21:31.350Z,56.9909
2019-05-16T11:22:36.787Z,57.2091
2019-05-16T11:23:40.301Z,57.1405
2019-05-16T11:24:43.330Z,57.5219
2019-05-16T11:25:47.098Z,57.4151
2019-05-16T11:26:50.446Z,57.6532
2019-05-16T11:27:53.281Z,56.6598
2019-05-16T11:28:57.351Z,56.7422
2019-05-16T11:30:00.313Z,57.0489
2019-05-16T11:31:04.029Z,57.5341
2019-05-16T11:32:07.356Z,58.0255
2019-05-16T11:33:10.307Z,57.9431
2019-05-16T11:34:13.333Z,56.3409
2019-05-16T11:35:17.135Z,56.1379
2019-05-16T11:36:20.323Z,55.9182
2019-05-16T11:37:23.347Z,55.3109
2019-05-16T11:38:26.343Z,54.3847
2019-05-16T11:39:29.281Z,54.0658
2019-05-16T11:40:32.288Z,54.3175
2019-05-16T11:41:35.364Z,54.3542
2019-05-16T11:42:38.396Z,54.5144
2019-05-16T11:43:41.312Z,54.8150
2019-05-16T11:44:47.592Z,54.5495
2019-05-16T11:45:51.336Z,54.3496
2019-05-16T11:46:54.300Z,54.0200
2019-05-16T11:47:57.383Z,53.3745
2019-05-16T11:49:00.317Z,53.1762
2019-05-16T11:50:03.319Z,53.1212
2019-05-16T11:51:07.081Z,53.1731
2019-05-16T11:52:10.323Z,52.9854
2019-05-16T11:53:13.379Z,52.0241
2019-05-16T11:54:16.338Z,52.0562
2019-05-16T11:55:19.328Z,51.9280
2019-05-16T11:56:22.286Z,53.3745
2019-05-16T11:57:25.349Z,53.3913
2019-05-16T11:58:28.343Z,53.3364
2019-05-16T11:59:31.348Z,52.4636
2019-05-16T12:00:33.303Z,54.2672
2019-05-16T12:01:36.952Z,52.5780
2019-05-16T12:02:42.674Z,52.1187
2019-05-16T12:03:46.829Z,53.1136
2019-05-16T12:04:50.306Z,52.2881
2019-05-16T12:05:53.307Z,52.3033
2019-05-16T12:06:57.433Z,52.4132
2019-05-16T12:08:00.341Z,53.0495
2019-05-16T12:09:03.342Z,54.3725
2019-05-16T12:10:07.610Z,53.8094
2019-05-16T12:11:10.321Z,53.9635
2019-05-16T12:12:13.304Z,54.1512
2019-05-16T12:13:25.405Z,53.6706
2019-05-16T12:14:24.344Z,53.8552
2019-05-16T12:15:27.518Z,54.0612
2019-05-16T12:16:30.358Z,52.9625
2019-05-16T12:17:33.300Z,52.9152
2019-05-16T12:18:37.286Z,52.4910
2019-05-16T12:19:43.994Z,51.5740
2019-05-16T12:20:47.378Z,50.7881
2019-05-16T12:21:50.280Z,51.5801
2019-05-16T12:22:53.322Z,51.8593
2019-05-16T12:23:56.346Z,52.6726
2019-05-16T12:24:59.304Z,52.9976
2019-05-16T12:26:02.353Z,53.5027
2019-05-16T12:27:07.955Z,54.7189
2019-05-16T12:28:11.346Z,55.2087
2019-05-16T12:29:17.100Z,55.8190
2019-05-16T12:30:20.304Z,54.5785
2019-05-16T12:31:23.286Z,54.3175
2019-05-16T12:32:27.684Z,54.5556
2019-05-16T12:33:30.376Z,53.1365
2019-05-16T12:34:32.453Z,53.3272
2019-05-16T12:35:36.961Z,53.5119
2019-05-16T12:36:39.258Z,53.0632
2019-05-16T12:37:41.510Z,52.8923
2019-05-16T12:38:46.623Z,53.5668
2019-05-16T12:39:50.299Z,54.2336
2019-05-16T12:40:53.309Z,54.7646
2019-05-16T12:41:59.227Z,55.1583
2019-05-16T12:43:03.305Z,55.0454
2019-05-16T12:44:07.548Z,55.5032
2019-05-16T12:45:11.318Z,55.7549
2019-05-16T12:46:14.303Z,55.7351
2019-05-16T12:47:17.327Z,55.5444
2019-05-16T12:48:20.428Z,53.4981
2019-05-16T12:49:24.327Z,53.3593
2019-05-16T12:50:28.655Z,53.1624
2019-05-16T12:51:32.328Z,53.4249
2019-05-16T12:52:38.247Z,53.4600
2019-05-16T12:53:41.367Z,53.9422
2019-05-16T12:54:43.292Z,54.1146
2019-05-16T12:55:47.633Z,53.7575